Latest Weather Observations for Kingfish B

IDV60801

Issued at 1:02 pm EST Saturday 30 July 2016 (issued every 30 minutes, with the page automatically refreshed every 10 minutes)

About weather observations | Map of weather stations | Latest weather observations for VIC | Other Formats
Station Details ID: 400139 Name: KINGFISH B (PLATFORM) Lat: -38.60 Lon: 148.19 Height: 31.4 m
Data from the previous 72 hours. | See also: Recent months for locations in Victoria
Date/Time
EST
Temp
°C
App
Temp
°C
Dew
Point
°C
Rel
Hum
%
Delta-T
°C
Wind Press
QNH
hPa
Press
MSL
hPa
Rain since
9am
mm
Dir  Spd
km/h
Gust
km/h
Spd
kts
Gust
kts
30/11:40am 14.0 12.6 8.9 71 2.6 NW 6 9 3 5 1018.2 - -
30/11:30am 14.1 12.2 8.9 71 2.6 NW 9 11 5 6 1018.6 - -
30/11:20am 14.2 12.7 9.1 71 2.6 WNW 7 11 4 6 1018.8 - -
30/11:10am 14.4 12.9 9.2 71 2.7 WNW 7 11 4 6 1018.9 - -
30/11:00am 14.6 12.7 9.2 70 2.8 WNW 9 11 5 6 1018.9 - -
30/10:50am 14.7 12.8 9.1 69 2.9 WNW 9 11 5 6 1019.2 - -
30/10:40am 14.9 13.4 9.0 68 3.0 WNW 7 9 4 5 1019.3 - -
30/10:30am 14.8 13.3 9.1 68 2.9 WNW 7 11 4 6 1019.5 - -
30/10:20am 14.7 13.3 8.9 68 3.0 WNW 6 9 3 5 1019.6 - -
30/10:10am 15.0 13.4 8.8 66 3.2 WNW 7 9 4 5 1019.8 - -
30/10:00am 15.2 13.6 8.7 65 3.3 WNW 7 9 4 5 1019.8 - -
30/09:50am 15.0 13.9 8.4 64 3.3 WNW 4 7 2 4 1019.8 - -
30/09:40am 15.1 14.0 8.4 64 3.4 WNW 4 6 2 3 1020.0 - -
30/09:30am 15.2 14.5 8.6 64 3.3 WNW 2 6 1 3 1019.9 - -
30/09:20am 15.3 15.0 8.5 64 3.4 CALM 0 2 0 1 1020.0 - -
30/09:10am 15.4 15.1 8.8 65 3.4 CALM 0 2 0 1 1020.0 - -
30/09:00am 15.2 14.9 8.8 65 3.3 CALM 0 4 0 2 1020.1 - -
30/08:50am 15.1 14.7 8.2 63 3.5 CALM 0 2 0 1 1020.1 - -
30/08:40am 14.7 14.2 7.7 63 3.5 CALM 0 2 0 1 1020.0 - -
30/08:30am 14.3 13.3 7.4 63 3.4 WSW 2 4 1 2 1020.0 - -
30/08:20am 14.0 13.0 7.2 63 3.3 WSW 2 4 1 2 1020.1 - -
30/08:10am 14.0 12.6 7.2 63 3.3 WSW 4 7 2 4 1020.2 - -
30/08:00am 13.6 12.2 7.1 65 3.2 WSW 4 7 2 4 1020.2 - -
30/07:50am 13.5 12.1 7.1 65 3.1 SW 4 7 2 4 1020.5 - -
30/07:40am 13.6 12.2 7.2 65 3.1 SW 4 6 2 3 1020.5 - -
30/07:30am 13.6 11.8 7.1 65 3.2 SW 6 9 3 5 1020.4 - -
30/07:20am 13.4 11.4 7.1 65 3.1 SW 7 9 4 5 1020.6 - -
30/07:10am 13.4 11.4 7.3 66 3.0 SSW 7 13 4 7 1020.7 - -
30/07:00am 12.8 10.4 7.1 68 2.8 SSW 9 13 5 7 1020.6 - -
30/06:50am 12.2 10.3 6.7 69 2.6 SSW 6 9 3 5 1020.7 - -
30/06:40am 12.3 10.4 6.8 69 2.6 SSW 6 9 3 5 1020.5 - -
30/06:30am 12.4 10.0 7.1 70 2.6 SSW 9 13 5 7 1020.2 - -
30/06:20am 12.2 10.2 7.1 71 2.5 SSW 7 11 4 6 1020.3 - -
30/06:10am 12.3 10.3 7.1 70 2.5 SW 7 13 4 7 1019.8 - -
30/06:00am 12.3 10.0 7.3 71 2.4 SW 9 13 5 7 1019.9 - -
30/05:50am 12.3 10.3 7.2 71 2.5 SW 7 11 4 6 1020.1 - -
30/05:40am 12.4 10.4 7.2 70 2.5 SW 7 9 4 5 1020.1 - -
30/05:30am 12.3 9.9 7.0 70 2.5 SW 9 13 5 7 1019.9 - -
30/05:20am 12.5 10.1 7.1 69 2.6 SSW 9 15 5 8 1019.8 - -
30/05:10am 12.5 9.4 7.3 70 2.5 SSW 13 17 7 9 1019.6 - -
30/05:00am 12.2 9.4 7.1 71 2.5 SSW 11 15 6 8 1019.9 - -
30/04:50am 12.2 8.7 7.1 71 2.5 SSW 15 20 8 11 1019.6 - -
30/04:40am 12.1 9.0 7.2 72 2.4 SSW 13 17 7 9 1019.6 - -
30/04:30am 12.3 9.2 7.3 71 2.4 SSW 13 17 7 9 1019.6 - -
30/04:20am 12.6 9.1 7.2 69 2.6 SSW 15 20 8 11 1019.4 - -
30/04:10am 12.5 8.3 7.3 70 2.5 SW 19 24 10 13 1019.4 - -
30/04:00am 12.5 8.3 7.6 72 2.4 SW 19 22 10 12 1019.4 - -
30/03:50am 12.4 8.2 7.6 72 2.3 SW 19 24 10 13 1019.2 - -
30/03:40am 12.4 9.0 7.7 73 2.3 SW 15 22 8 12 1019.2 - -
30/03:30am 12.3 8.1 7.6 73 2.3 SW 19 22 10 12 1018.9 - -
30/03:20am 12.3 8.5 7.7 73 2.2 SW 17 20 9 11 1019.2 - -
30/03:10am 12.2 7.9 7.9 75 2.1 SW 20 26 11 14 1019.1 - -
30/03:00am 12.2 7.6 8.1 76 2.0 SW 22 28 12 15 1018.8 - -
30/02:50am 12.3 8.7 8.2 76 2.0 SW 17 22 9 12 1019.0 - -
30/02:40am 12.2 8.2 8.1 76 2.0 SW 19 24 10 13 1018.6 - -
30/02:30am 12.3 7.3 8.2 76 2.0 SW 24 30 13 16 1018.5 - -
30/02:20am 12.4 8.2 8.4 76 2.0 SW 20 26 11 14 1018.7 - -
30/02:10am 12.4 7.6 8.9 79 1.8 SSW 24 28 13 15 1019.1 - -
30/02:00am 12.2 7.1 9.2 82 1.5 SW 26 30 14 16 1018.8 - -
30/01:50am 12.4 8.5 9.3 81 1.6 SW 20 30 11 16 1018.9 - -
30/01:40am 12.7 8.4 9.5 81 1.6 SW 22 30 12 16 1018.9 - -
30/01:30am 12.8 8.9 9.4 80 1.7 SW 20 26 11 14 1018.9 - -
30/01:20am 13.1 8.9 9.6 79 1.8 SW 22 30 12 16 1018.6 - -
30/01:10am 13.1 8.1 9.5 79 1.8 WSW 26 33 14 18 1018.4 - -
30/01:00am 13.2 7.4 9.6 79 1.8 WSW 30 35 16 19 1018.3 - -
30/12:50am 13.2 7.8 9.6 79 1.8 WSW 28 33 15 18 1018.4 - -
30/12:40am 13.2 8.2 9.7 79 1.8 WSW 26 32 14 17 1018.4 - -
30/12:30am 13.1 8.1 9.7 80 1.7 WSW 26 32 14 17 1018.6 - -
30/12:20am 13.1 7.8 9.7 80 1.7 WSW 28 33 15 18 1018.5 - -
30/12:10am 13.1 7.4 9.8 80 1.7 WSW 30 37 16 20 1018.3 - -
30/12:00am 13.1 7.4 9.7 80 1.7 WSW 30 35 16 19 1018.3 - -
 
Date/Time
EST
Temp
°C
App
Temp
°C
Dew
Point
°C
Rel
Hum
%
Delta-T
°C
Wind Press
QNH
hPa
Press
MSL
hPa
Rain since
9am
mm
Dir  Spd
km/h
Gust
km/h
Spd
kts
Gust
kts
29/11:50pm 13.1 6.8 9.6 79 1.8 WSW 33 39 18 21 1018.1 - -
29/11:40pm 13.3 7.2 9.7 79 1.8 WSW 32 39 17 21 1018.3 - -
29/11:30pm 13.4 8.1 9.7 78 1.9 WSW 28 35 15 19 1018.4 - -
29/11:20pm 13.3 7.5 9.5 78 1.9 WSW 30 37 16 20 1018.5 - -
29/11:10pm 13.3 7.5 9.5 78 1.9 WSW 30 39 16 21 1018.5 - -
29/11:00pm 13.4 7.1 9.6 78 1.9 WSW 33 41 18 22 1018.3 - -
29/10:50pm 13.5 7.2 9.7 78 2.0 WSW 33 41 18 22 1018.3 - -
29/10:40pm 13.5 6.8 9.7 78 2.0 WSW 35 44 19 24 1018.5 - -
29/10:30pm 13.5 6.4 9.6 77 2.0 WSW 37 43 20 23 1018.5 - -
29/10:20pm 13.4 6.7 9.6 78 1.9 WSW 35 44 19 24 1018.2 - -
29/10:10pm 13.5 6.8 9.5 77 2.0 WSW 35 44 19 24 1018.0 - -
29/10:00pm 13.5 6.8 9.6 77 2.0 WSW 35 44 19 24 1018.1 - -
29/09:50pm 13.5 6.7 9.4 76 2.1 WSW 35 44 19 24 1018.0 - -
29/09:40pm 13.5 6.3 9.3 76 2.1 WSW 37 48 20 26 1017.7 - -
29/09:30pm 13.5 5.9 9.2 75 2.2 WSW 39 48 21 26 1017.5 - -
29/09:20pm 13.6 6.5 9.4 76 2.1 WSW 37 46 20 25 1017.5 - -
29/09:10pm 13.6 6.5 9.4 76 2.1 WSW 37 48 20 26 1017.4 - -
29/09:00pm 13.7 6.2 9.3 75 2.2 WSW 39 46 21 25 1017.5 - -
29/08:50pm 13.7 6.2 9.4 75 2.2 WSW 39 50 21 27 1017.4 - -
29/08:40pm 13.7 7.3 9.5 76 2.1 WSW 33 43 18 23 1017.5 - -
29/08:30pm 13.7 7.5 9.4 75 2.2 WSW 32 41 17 22 1017.6 - -
29/08:20pm 13.7 7.5 9.4 75 2.2 WSW 32 41 17 22 1017.6 - -
29/08:10pm 13.6 7.4 9.4 76 2.1 WSW 32 44 17 24 1017.5 - -
29/08:00pm 13.6 6.5 9.4 76 2.1 WSW 37 46 20 25 1017.1 - -
29/07:50pm 13.7 6.2 9.4 75 2.2 WSW 39 48 21 26 1016.9 - -
29/07:30pm 13.7 5.4 9.3 75 2.2 WSW 43 52 23 28 1016.3 - -
29/07:20pm 13.7 5.4 9.2 74 2.3 WSW 43 54 23 29 1016.1 - -
29/07:10pm 13.8 5.5 9.2 74 2.3 WSW 43 52 23 28 1015.9 - -
29/07:00pm 13.8 6.2 9.2 74 2.3 WSW 39 50 21 27 1016.1 - -
29/06:50pm 13.8 6.6 9.2 74 2.3 WSW 37 46 20 25 1016.0 - -
29/06:40pm 13.8 7.0 9.2 74 2.3 WSW 35 46 19 25 1015.9 - -
29/06:30pm 13.9 7.7 9.3 74 2.3 WSW 32 39 17 21 1015.8 - -
29/06:20pm 13.9 7.7 9.3 74 2.3 WSW 32 39 17 21 1015.4 - -
29/06:10pm 13.9 7.5 9.2 73 2.4 WSW 33 44 18 24 1015.1 - -
29/06:00pm 13.9 5.9 9.1 73 2.4 WSW 41 54 22 29 1015.1 - -
29/05:50pm 14.1 7.0 9.4 73 2.4 WSW 37 48 20 26 1015.3 - -
29/05:40pm 14.0 6.5 9.3 73 2.4 WSW 39 52 21 28 1014.9 - -
29/05:30pm 14.1 6.9 9.3 73 2.5 WSW 37 50 20 27 1015.0 - -
29/05:20pm 14.2 7.0 9.3 72 2.5 WSW 37 46 20 25 1014.9 - -
29/05:10pm 14.3 7.1 9.3 72 2.6 WSW 37 48 20 26 1014.6 - -
29/05:00pm 14.3 5.8 9.2 71 2.6 WSW 44 57 24 31 1014.5 - -
29/04:50pm 14.4 7.6 9.3 71 2.6 WSW 35 48 19 26 1014.7 - -
29/04:40pm 14.4 8.6 9.3 71 2.6 WSW 30 46 16 25 1014.5 - -
29/04:30pm 14.5 8.1 9.2 70 2.7 WSW 33 41 18 22 1014.3 - -
29/04:20pm 14.4 7.2 9.2 71 2.7 WSW 37 44 20 24 1014.1 - -
29/04:10pm 14.6 7.8 9.3 70 2.7 WSW 35 43 19 23 1014.2 - -
29/04:00pm 14.5 6.9 9.2 70 2.7 WSW 39 46 21 25 1013.9 - -
29/03:50pm 14.5 7.3 9.1 70 2.8 WSW 37 46 20 25 1013.7 - -
29/03:40pm 14.6 6.6 8.9 68 2.9 WSW 41 50 22 27 1013.5 - -
29/03:30pm 14.6 6.5 8.8 68 2.9 WSW 41 56 22 30 1013.3 - -
29/03:20pm 14.7 6.6 8.8 68 3.0 WSW 41 56 22 30 1013.3 - -
29/03:10pm 14.7 7.5 9.0 68 2.9 WSW 37 48 20 26 1013.4 - -
29/03:00pm 14.7 8.2 9.1 69 2.9 WSW 33 44 18 24 1013.3 - -
29/02:50pm 14.7 8.3 9.2 69 2.8 WSW 33 41 18 22 1013.3 - -
29/02:40pm 14.7 7.9 9.2 69 2.8 WSW 35 43 19 23 1013.4 - -
29/02:30pm 14.7 8.3 9.4 70 2.7 WSW 33 41 18 22 1013.4 - -
29/02:20pm 14.7 8.3 9.5 71 2.7 WSW 33 43 18 23 1013.3 - -
29/02:10pm 14.6 8.5 9.6 72 2.6 WSW 32 39 17 21 1013.5 - -
29/02:00pm 14.5 8.4 9.6 72 2.5 WSW 32 39 17 21 1013.5 - -
29/01:50pm 14.2 7.1 9.4 73 2.5 WSW 37 44 20 24 1013.5 - -
29/01:40pm 14.3 7.2 9.4 72 2.5 WSW 37 44 20 24 1013.5 - -
29/01:30pm 14.3 7.5 9.3 72 2.6 WSW 35 44 19 24 1013.2 - -
29/01:20pm 14.5 6.2 9.2 70 2.7 WSW 43 52 23 28 1013.1 - -
29/01:10pm 14.6 6.1 9.1 69 2.8 WSW 44 54 24 29 1013.0 - -
29/01:00pm 14.8 5.4 8.9 68 3.0 WSW 48 57 26 31 1012.9 - -
29/12:50pm 15.0 6.4 9.0 67 3.1 WSW 44 57 24 31 1012.9 - -
29/12:40pm 15.0 6.6 8.9 67 3.1 WSW 43 56 23 30 1012.9 - -
29/12:30pm 14.9 6.3 8.9 67 3.1 WSW 44 56 24 30 1013.1 - -
29/12:20pm 14.7 6.1 8.9 68 3.0 WSW 44 56 24 30 1013.2 - -
29/12:10pm 14.6 6.9 8.8 68 2.9 WSW 39 50 21 27 1013.3 - -
29/12:00pm 14.5 6.8 8.8 68 2.9 WSW 39 48 21 26 1013.3 - -
29/11:50am 14.7 6.2 8.7 67 3.0 WSW 43 52 23 28 1013.0 - -
29/11:40am 14.8 6.3 8.7 67 3.1 WSW 43 52 23 28 1013.1 - -
29/11:30am 14.8 6.3 8.7 67 3.1 WSW 43 52 23 28 1013.1 - -
29/11:20am 14.6 6.9 8.7 67 3.0 WSW 39 50 21 27 1013.4 - -
29/11:10am 14.5 7.5 8.5 67 3.0 W 35 44 19 24 1013.6 - -
29/11:00am 14.5 8.0 8.2 66 3.2 W 32 39 17 21 1013.9 - -
29/10:50am 14.4 7.6 7.9 65 3.2 W 33 44 18 24 1013.8 - -
29/10:40am 14.3 7.7 7.8 65 3.2 W 32 44 17 24 1014.0 - -
29/10:30am 14.4 7.6 7.6 63 3.4 W 33 41 18 22 1014.1 - -
29/10:20am 14.3 7.4 7.4 63 3.4 W 33 43 18 23 1014.7 - -
29/10:10am 14.4 7.1 7.3 62 3.5 W 35 44 19 24 1014.7 - -
29/10:00am 14.3 6.6 7.2 62 3.5 W 37 44 20 24 1014.7 - -
29/09:50am 14.2 6.1 7.2 63 3.4 W 39 48 21 26 1014.8 - -
29/09:40am 14.2 5.4 7.1 62 3.5 W 43 50 23 27 1014.9 - -
29/09:30am 14.3 6.2 7.1 62 3.5 W 39 48 21 26 1014.8 - -
29/09:20am 14.3 5.4 7.0 61 3.6 W 43 52 23 28 1014.8 - -
29/09:10am 14.3 5.8 7.1 62 3.5 W 41 48 22 26 1014.8 - -
29/09:00am 14.3 6.2 7.1 62 3.5 W 39 48 21 26 1014.8 - -
29/08:50am 14.3 6.2 7.2 62 3.5 W 39 46 21 25 1014.8 - -
29/08:40am 14.2 6.5 7.2 63 3.4 W 37 44 20 24 1015.0 - -
29/08:30am 14.2 6.5 7.0 62 3.5 W 37 46 20 25 1015.1 - -
29/08:20am 14.2 6.1 7.0 62 3.5 W 39 48 21 26 1015.3 - -
29/08:10am 14.2 6.5 7.1 62 3.5 W 37 43 20 23 1015.5 - -
29/08:00am 14.2 6.1 7.0 62 3.5 W 39 44 21 24 1015.8 - -
29/07:50am 14.1 6.4 7.2 63 3.4 W 37 44 20 24 1015.6 - -
29/07:40am 13.9 5.8 7.2 64 3.3 W 39 48 21 26 1015.7 - -
29/07:30am 13.7 5.6 7.1 64 3.2 W 39 44 21 24 1015.5 - -
29/07:20am 13.7 6.0 7.1 64 3.2 W 37 44 20 24 1015.5 - -
29/07:10am 13.8 6.5 7.1 64 3.3 W 35 41 19 22 1015.5 - -
29/07:00am 13.6 6.8 7.0 64 3.2 W 32 39 17 21 1015.9 - -
29/06:50am 13.6 6.8 7.0 64 3.2 W 32 37 17 20 1016.3 - -
29/06:40am 13.6 7.2 7.0 64 3.2 W 30 37 16 20 1016.2 - -
29/06:30am 13.5 6.7 6.8 64 3.2 W 32 39 17 21 1016.1 - -
29/06:20am 13.5 6.5 6.7 63 3.3 W 33 39 18 21 1015.9 - -
29/06:10am 13.6 6.8 6.8 63 3.3 W 32 39 17 21 1015.9 - -
29/06:00am 13.7 6.7 6.7 62 3.4 W 33 44 18 24 1015.8 - -
29/05:50am 13.6 6.2 6.7 63 3.3 W 35 44 19 24 1015.8 - -
29/05:40am 13.6 6.2 6.7 63 3.3 W 35 44 19 24 1015.6 - -
29/05:30am 13.5 5.7 6.6 63 3.3 W 37 44 20 24 1015.6 - -
29/05:20am 13.6 5.8 6.8 63 3.3 W 37 46 20 25 1015.4 - -
29/05:10am 13.6 5.4 6.7 63 3.3 W 39 50 21 27 1015.3 - -
29/05:00am 13.6 4.4 6.5 62 3.4 W 44 54 24 29 1015.1 - -
29/04:50am 13.6 4.6 6.5 62 3.4 W 43 52 23 28 1014.9 - -
29/04:40am 13.6 5.0 6.4 62 3.5 W 41 50 22 27 1015.1 - -
29/04:30am 13.6 5.4 6.4 62 3.5 W 39 48 21 26 1015.2 - -
29/04:20am 13.6 6.1 6.5 62 3.4 W 35 44 19 24 1015.3 - -
29/04:10am 13.5 6.4 6.5 62 3.4 W 33 44 18 24 1015.2 - -
29/03:50am 13.5 6.1 6.7 63 3.3 W 35 43 19 23 1015.3 - -
29/03:40am 13.5 6.1 6.7 63 3.3 W 35 43 19 23 1015.4 - -
29/03:30am 13.5 6.0 6.3 61 3.4 W 35 44 19 24 1015.5 - -
29/03:20am 13.5 6.4 6.3 61 3.4 W 33 43 18 23 1015.7 - -
29/03:10am 13.6 6.1 6.3 61 3.5 W 35 44 19 24 1015.7 - -
29/03:00am 13.6 5.4 6.5 62 3.4 W 39 44 21 24 1015.8 - -
29/02:50am 13.6 5.4 6.4 62 3.5 W 39 48 21 26 1015.7 - -
29/02:40am 13.6 5.3 6.3 61 3.5 W 39 48 21 26 1015.7 - -
29/02:30am 13.6 5.7 6.4 62 3.5 W 37 50 20 27 1015.7 - -
29/02:20am 13.5 5.6 6.4 62 3.4 W 37 46 20 25 1015.7 - -
29/02:10am 13.5 4.5 6.2 61 3.5 W 43 50 23 27 1015.7 - -
29/02:00am 13.5 5.2 6.3 61 3.4 W 39 48 21 26 1015.8 - -
29/01:50am 13.5 5.2 6.2 61 3.5 W 39 46 21 25 1015.9 - -
29/01:40am 13.5 5.6 6.3 61 3.4 W 37 44 20 24 1016.0 - -
29/01:30am 13.5 5.6 6.4 62 3.4 W 37 44 20 24 1015.9 - -
29/01:20am 13.5 6.0 6.4 62 3.4 W 35 46 19 25 1016.0 - -
29/01:10am 13.5 6.0 6.3 61 3.4 W 35 43 19 23 1016.1 - -
29/01:00am 13.5 5.6 6.2 61 3.5 W 37 43 20 23 1015.9 - -
29/12:50am 13.5 5.2 6.0 60 3.6 W 39 44 21 24 1016.1 - -
29/12:40am 13.5 5.6 6.2 61 3.5 W 37 43 20 23 1016.3 - -
29/12:30am 13.6 6.1 6.4 62 3.5 W 35 43 19 23 1016.1 - -
29/12:20am 13.6 6.1 6.4 62 3.5 W 35 43 19 23 1015.9 - -
29/12:10am 13.6 6.1 6.4 62 3.5 W 35 43 19 23 1016.3 - -
29/12:00am 13.6 5.3 6.3 61 3.5 W 39 44 21 24 1016.3 - -
 
Date/Time
EST
Temp
°C
App
Temp
°C
Dew
Point
°C
Rel
Hum
%
Delta-T
°C
Wind Press
QNH
hPa
Press
MSL
hPa
Rain since
9am
mm
Dir  Spd
km/h
Gust
km/h
Spd
kts
Gust
kts
28/11:50pm 13.6 5.7 6.4 62 3.5 W 37 48 20 26 1016.4 - -
28/11:40pm 13.6 5.7 6.3 61 3.5 W 37 46 20 25 1016.6 - -
28/11:20pm 13.4 4.7 6.0 61 3.5 W 41 52 22 28 1016.5 - -
28/11:10pm 13.4 5.1 6.0 61 3.5 W 39 50 21 27 1016.5 - -
28/11:00pm 13.4 4.7 6.1 61 3.5 W 41 50 22 27 1016.5 - -
28/10:50pm 13.4 4.3 6.0 61 3.5 W 43 50 23 27 1016.7 - -
28/10:40pm 13.4 4.7 6.1 61 3.5 W 41 48 22 26 1016.8 - -
28/10:30pm 13.5 4.8 6.1 61 3.5 W 41 50 22 27 1016.9 - -
28/10:20pm 13.5 5.3 6.4 62 3.4 W 39 48 21 26 1017.1 - -
28/10:10pm 13.7 5.8 6.2 60 3.6 W 37 46 20 25 1017.3 - -
28/10:00pm 13.7 6.2 6.4 61 3.5 W 35 43 19 23 1017.5 - -
28/09:50pm 13.7 6.2 6.4 61 3.5 W 35 43 19 23 1017.3 - -
28/09:40pm 13.7 5.8 6.3 61 3.5 W 37 48 20 26 1017.5 - -
28/09:30pm 13.7 5.8 6.4 61 3.5 W 37 44 20 24 1017.6 - -
28/09:20pm 13.8 6.0 6.6 62 3.5 W 37 44 20 24 1017.5 - -
28/09:10pm 14.0 7.0 7.0 62 3.4 W 33 39 18 21 1017.9 - -
28/09:00pm 14.1 7.2 7.3 63 3.3 W 33 39 18 21 1017.8 - -
28/08:50pm 14.0 6.4 7.5 65 3.2 W 37 46 20 25 1017.9 - -
28/08:40pm 13.9 5.5 7.4 65 3.2 W 41 50 22 27 1017.7 - -
28/08:30pm 13.9 4.9 7.4 65 3.2 W 44 52 24 28 1017.7 - -
28/08:20pm 14.0 5.7 7.8 66 3.1 W 41 48 22 26 1018.1 - -
28/08:10pm 14.0 6.9 8.0 67 3.0 W 35 43 19 23 1018.3 - -
28/08:00pm 14.0 7.3 8.0 67 3.0 W 33 39 18 21 1018.5 - -
28/07:50pm 14.0 6.5 7.8 66 3.1 W 37 46 20 25 1018.5 - -
28/07:40pm 13.9 6.4 7.9 67 3.0 W 37 44 20 24 1018.5 - -
28/07:30pm 14.0 6.9 8.0 67 3.0 W 35 41 19 22 1018.4 - -
28/07:20pm 14.1 7.4 8.2 67 2.9 W 33 41 18 22 1018.6 - -
28/07:10pm 14.1 7.0 8.2 67 2.9 W 35 44 19 24 1018.4 - -
28/07:00pm 14.2 6.7 8.0 66 3.1 W 37 44 20 24 1018.4 - -
28/06:50pm 14.2 6.7 7.9 66 3.1 W 37 48 20 26 1018.2 - -
28/06:40pm 14.2 6.3 7.8 65 3.2 W 39 48 21 26 1018.0 - -
28/06:30pm 14.1 5.4 7.6 65 3.2 W 43 54 23 29 1017.4 - -
28/06:20pm 14.1 5.2 7.5 64 3.3 W 44 59 24 32 1017.3 - -
28/06:10pm 14.2 6.3 7.8 65 3.2 W 39 50 21 27 1017.6 - -
28/06:00pm 14.2 6.3 7.7 65 3.2 W 39 52 21 28 1017.6 - -
28/05:50pm 14.1 6.6 8.0 66 3.0 W 37 50 20 27 1017.6 - -
28/05:40pm 14.1 6.3 8.1 67 3.0 W 39 48 21 26 1017.6 - -
28/05:30pm 14.2 6.7 8.0 66 3.1 W 37 48 20 26 1017.5 - -
28/05:20pm 14.2 6.7 8.0 66 3.1 W 37 50 20 27 1017.2 - -
28/05:10pm 14.2 7.1 8.2 67 3.0 W 35 46 19 25 1017.3 - -
28/05:00pm 14.2 7.5 8.1 66 3.0 W 33 41 18 22 1017.4 - -
28/04:50pm 14.2 7.1 8.1 66 3.0 W 35 44 19 24 1017.2 - -
28/04:40pm 14.2 7.5 8.2 67 3.0 W 33 46 18 25 1017.1 - -
28/04:30pm 14.2 7.1 8.1 66 3.0 W 35 43 19 23 1017.0 - -
28/04:20pm 14.2 7.1 8.2 67 3.0 W 35 43 19 23 1016.4 - -
28/04:10pm 14.2 7.5 8.2 67 3.0 W 33 41 18 22 1016.2 - -
28/04:00pm 14.2 7.5 8.3 67 3.0 WSW 33 41 18 22 1016.4 - -
28/03:50pm 14.2 8.2 8.5 68 2.9 WSW 30 37 16 20 1016.1 - -
28/03:40pm 14.4 8.3 8.4 67 3.0 WSW 30 37 16 20 1016.2 - -
28/03:30pm 14.3 6.8 8.0 66 3.1 WSW 37 46 20 25 1015.6 - -
28/03:20pm 14.3 5.6 7.9 65 3.2 WSW 43 54 23 29 1015.4 - -
28/03:10pm 14.4 5.6 7.9 65 3.2 WSW 44 56 24 30 1015.3 - -
28/03:00pm 14.4 4.7 7.5 63 3.4 WSW 48 61 26 33 1015.5 - -
28/02:50pm 14.4 5.6 7.9 65 3.2 WSW 44 59 24 32 1015.8 - -
28/02:40pm 14.4 7.7 8.0 65 3.2 W 33 44 18 24 1016.4 - -
28/02:30pm 14.4 6.9 7.9 65 3.2 W 37 46 20 25 1016.2 - -
28/02:20pm 14.3 7.2 7.9 65 3.2 W 35 43 19 23 1016.0 - -
28/02:10pm 14.3 6.8 7.9 65 3.2 W 37 43 20 23 1016.1 - -
28/02:00pm 14.2 6.7 7.9 66 3.1 W 37 46 20 25 1015.8 - -
28/01:50pm 14.2 6.3 7.8 65 3.2 W 39 48 21 26 1015.8 - -
28/01:40pm 14.2 6.3 7.8 65 3.2 W 39 46 21 25 1015.9 - -
28/01:30pm 14.1 5.8 7.8 66 3.1 W 41 48 22 26 1015.6 - -
28/01:20pm 14.1 6.2 7.9 66 3.1 W 39 46 21 25 1015.6 - -
28/01:10pm 14.1 6.2 7.8 66 3.1 W 39 46 21 25 1015.7 - -
28/01:00pm 14.2 6.3 7.9 66 3.1 W 39 48 21 26 1015.8 - -
28/12:50pm 14.1 5.4 7.8 66 3.1 W 43 48 23 26 1016.0 - -
28/12:40pm 14.2 5.5 7.7 65 3.2 WSW 43 52 23 28 1016.1 - -
28/12:30pm 14.1 5.2 7.7 65 3.2 WSW 44 54 24 29 1016.1 - -
28/12:20pm 14.1 5.2 7.6 65 3.2 WSW 44 52 24 28 1016.2 - -
28/12:10pm 14.2 5.3 7.7 65 3.2 WSW 44 54 24 29 1016.1 - -
28/12:00pm 14.0 4.7 7.6 65 3.2 WSW 46 57 25 31 1016.1 - -
28/11:40am 14.0 4.7 7.7 66 3.1 WSW 46 57 25 31 1016.3 - -
28/11:30am 13.9 3.8 7.5 65 3.1 W 50 59 27 32 1016.2 - -
28/11:20am 13.9 3.8 7.5 65 3.1 W 50 61 27 33 1016.0 - -
28/11:10am 13.9 3.8 7.5 65 3.1 W 50 61 27 33 1016.3 - -
28/11:00am 13.8 3.7 7.5 66 3.1 W 50 61 27 33 1016.7 - -
28/10:50am 13.7 2.9 7.5 66 3.0 W 54 61 29 33 1016.9 - -
28/10:40am 13.7 3.2 7.4 65 3.1 W 52 61 28 33 1017.0 - -
28/10:30am 13.7 3.6 7.5 66 3.0 W 50 63 27 34 1017.4 - -
28/10:20am 13.6 3.1 7.5 66 3.0 W 52 61 28 33 1017.4 - -
28/10:10am 13.6 3.9 7.7 67 2.9 W 48 59 26 32 1017.4 - -
28/10:00am 13.5 3.8 7.7 68 2.9 W 48 65 26 35 1017.8 - -
28/09:50am 13.4 3.3 7.6 68 2.8 W 50 59 27 32 1018.3 - -
28/09:40am 13.4 3.7 7.7 68 2.8 W 48 59 26 32 1018.3 - -
28/09:30am 13.2 3.5 7.6 69 2.7 W 48 63 26 34 1018.3 - -
28/09:20am 13.1 3.0 7.5 69 2.7 W 50 59 27 32 1018.4 - -
28/09:10am 13.1 3.4 7.5 69 2.7 W 48 61 26 33 1018.5 - -
28/09:00am 13.1 3.4 7.5 69 2.7 W 48 59 26 32 1018.5 - -
28/08:50am 13.1 3.0 7.4 68 2.8 W 50 63 27 34 1018.2 - -
28/08:40am 13.1 3.4 7.6 69 2.7 W 48 59 26 32 1018.3 - -
28/08:30am 13.1 3.4 7.6 69 2.7 W 48 59 26 32 1018.3 - -
28/08:20am 13.0 3.8 7.8 70 2.6 W 46 59 25 32 1018.3 - -
28/08:10am 13.0 4.1 7.6 70 2.6 W 44 56 24 30 1018.3 - -
28/08:00am 13.0 4.1 7.6 70 2.6 W 44 54 24 29 1018.3 - -
28/07:50am 12.9 3.6 7.6 70 2.6 W 46 56 25 30 1017.9 - -
28/07:40am 13.0 3.3 7.7 70 2.6 W 48 56 26 30 1017.2 - -
28/07:30am 12.9 4.1 7.9 71 2.5 W 44 52 24 28 1017.2 - -
28/07:20am 12.6 3.3 7.7 72 2.4 W 46 56 25 30 1017.5 - -
28/07:10am 12.6 3.7 7.7 72 2.4 W 44 52 24 28 1017.6 - -
28/07:00am 12.6 3.3 7.7 72 2.4 W 46 54 25 29 1017.6 - -
28/06:50am 12.6 3.7 7.7 72 2.4 W 44 50 24 27 1017.5 - -
28/06:40am 12.5 3.6 7.7 72 2.3 W 44 54 24 29 1017.3 - -
28/06:30am 12.4 3.7 7.6 72 2.3 W 43 52 23 28 1017.4 - -
28/06:20am 12.4 3.7 7.6 72 2.3 W 43 50 23 27 1017.1 - -
28/06:10am 12.4 3.5 7.6 72 2.3 W 44 54 24 29 1017.0 - -
28/06:00am 12.5 3.6 7.8 73 2.3 W 44 52 24 28 1017.1 - -
28/05:50am 12.3 3.0 7.7 73 2.2 W 46 52 25 28 1016.8 - -
28/05:40am 12.3 3.4 7.7 73 2.2 W 44 50 24 27 1016.7 - -
28/05:30am 12.3 3.6 7.7 73 2.2 W 43 50 23 27 1016.5 - -
28/05:20am 12.3 4.4 7.7 73 2.2 W 39 46 21 25 1016.4 - -
28/05:10am 12.3 3.6 7.6 73 2.3 W 43 50 23 27 1016.6 - -
28/05:00am 12.3 4.0 7.6 73 2.3 W 41 50 22 27 1016.6 - -
28/04:50am 12.2 3.9 7.6 73 2.2 W 41 48 22 26 1016.5 - -
28/04:40am 12.2 3.9 7.6 73 2.2 W 41 50 22 27 1016.7 - -
28/04:30am 12.1 3.7 7.5 73 2.2 W 41 50 22 27 1016.5 - -
28/04:20am 12.0 3.1 7.5 74 2.2 W 44 52 24 28 1015.8 - -
28/04:10am 12.0 3.0 7.4 73 2.2 W 44 57 24 31 1015.8 - -
28/04:00am 12.0 3.2 7.4 73 2.2 W 43 54 23 29 1015.9 - -
28/03:50am 11.9 2.9 7.3 73 2.2 W 44 56 24 30 1015.7 - -
28/03:40am 12.0 3.0 7.3 73 2.3 W 44 54 24 29 1015.8 - -
28/03:30am 12.0 3.2 7.3 73 2.3 W 43 54 23 29 1015.6 - -
28/03:20am 12.0 3.0 7.3 73 2.3 W 44 57 24 31 1015.3 - -
28/03:10am 12.0 3.2 7.3 73 2.3 W 43 52 23 28 1015.6 - -
28/03:00am 12.0 2.6 7.3 73 2.3 W 46 54 25 29 1015.5 - -
28/02:50am 12.1 3.1 7.3 72 2.3 WSW 44 54 24 29 1015.3 - -
28/02:40am 12.1 3.3 7.3 72 2.3 W 43 56 23 30 1015.2 - -
28/02:30am 12.2 3.4 7.4 72 2.3 W 43 54 23 29 1015.2 - -
28/02:20am 12.2 3.8 7.3 72 2.4 W 41 52 22 28 1015.1 - -
28/02:10am 12.1 3.3 7.3 72 2.3 W 43 56 23 30 1015.1 - -
28/02:00am 12.2 3.4 7.4 72 2.3 W 43 48 23 26 1015.4 - -
28/01:50am 12.2 4.5 7.3 72 2.4 WSW 37 48 20 26 1015.8 - -
28/01:40am 12.1 4.4 7.2 72 2.4 W 37 46 20 25 1015.8 - -
28/01:30am 12.1 4.4 7.2 72 2.4 WSW 37 46 20 25 1015.9 - -
28/01:20am 12.1 4.0 7.2 72 2.4 WSW 39 44 21 24 1015.8 - -
28/01:10am 12.0 3.9 7.1 72 2.4 WSW 39 44 21 24 1015.5 - -
28/01:00am 12.0 4.3 7.1 72 2.4 W 37 46 20 25 1015.4 - -
28/12:50am 12.0 3.5 7.1 72 2.4 W 41 52 22 28 1015.3 - -
28/12:40am 11.9 3.0 7.0 72 2.3 W 43 50 23 27 1015.1 - -
28/12:30am 11.9 3.0 7.0 72 2.3 W 43 48 23 26 1015.2 - -
28/12:20am 11.8 2.7 6.9 72 2.3 W 44 52 24 28 1015.1 - -
28/12:10am 11.8 2.3 6.9 72 2.3 W 46 54 25 29 1014.9 - -
28/12:00am 11.9 3.0 7.0 72 2.3 WSW 43 52 23 28 1015.0 - -
 
Date/Time
EST
Temp
°C
App
Temp
°C
Dew
Point
°C
Rel
Hum
%
Delta-T
°C
Wind Press
QNH
hPa
Press
MSL
hPa
Rain since
9am
mm
Dir  Spd
km/h
Gust
km/h
Spd
kts
Gust
kts
27/11:50pm 11.9 3.4 6.9 71 2.4 WSW 41 52 22 28 1015.2 - -
27/11:40pm 11.8 2.3 6.9 72 2.3 WSW 46 56 25 30 1015.1 - -
27/11:30pm 11.8 2.0 6.9 72 2.3 WSW 48 56 26 30 1014.7 - -
27/11:20pm 11.8 1.9 6.8 71 2.4 WSW 48 59 26 32 1014.7 - -
27/11:10pm 11.8 2.0 6.9 72 2.3 W 48 57 26 31 1014.7 - -
27/11:00pm 11.7 1.4 6.7 71 2.4 W 50 61 27 33 1014.9 - -
27/10:50pm 11.7 2.2 6.8 72 2.3 W 46 57 25 31 1014.8 - -
27/10:40pm 11.7 1.8 6.7 71 2.4 W 48 59 26 32 1014.9 - -
27/10:30pm 11.6 1.7 6.7 72 2.3 W 48 57 26 31 1015.1 - -
27/10:20pm 11.7 1.8 6.7 71 2.4 W 48 57 26 31 1015.1 - -
27/10:10pm 11.6 1.7 6.6 71 2.4 W 48 56 26 30 1015.1 - -
27/10:00pm 11.6 1.3 6.5 71 2.4 W 50 59 27 32 1015.3 - -
27/09:50pm 11.6 2.1 6.5 71 2.4 W 46 56 25 30 1015.4 - -
27/09:40pm 11.8 2.7 6.6 70 2.5 W 44 54 24 29 1015.6 - -
27/09:30pm 11.7 1.7 6.3 69 2.5 W 48 57 26 31 1015.3 - -
27/09:20pm 11.7 1.7 6.3 69 2.5 W 48 56 26 30 1015.4 - -
27/09:10pm 11.7 2.5 6.2 69 2.6 W 44 57 24 31 1015.4 - -
27/08:50pm 11.7 1.6 5.7 66 2.8 W 48 57 26 31 1015.6 - -
27/08:40pm 11.8 1.7 5.9 67 2.8 W 48 56 26 30 1015.4 - -
27/08:30pm 11.8 2.1 5.8 66 2.8 W 46 56 25 30 1015.7 - -
27/08:20pm 11.8 2.1 5.8 66 2.8 WSW 46 54 25 29 1015.4 - -
27/08:10pm 11.9 2.6 5.8 66 2.8 WSW 44 56 24 30 1015.3 - -
27/08:00pm 11.9 1.8 5.8 66 2.8 WSW 48 61 26 33 1015.2 - -
27/07:50pm 11.9 2.2 5.8 66 2.8 WSW 46 56 25 30 1015.3 - -
27/07:40pm 11.8 0.9 5.6 66 2.9 WSW 52 67 28 36 1015.1 - -
27/07:30pm 11.8 0.9 5.6 66 2.9 WSW 52 61 28 33 1014.9 - -
27/07:20pm 11.8 1.7 5.7 66 2.8 WSW 48 69 26 37 1015.0 - -
27/07:10pm 11.8 0.5 5.4 65 3.0 WSW 54 67 29 36 1015.0 - -
27/07:00pm 11.7 1.1 5.3 65 3.0 WSW 50 61 27 33 1014.7 - -
27/06:50pm 11.7 1.1 5.3 65 3.0 WSW 50 61 27 33 1014.3 - -
27/06:40pm 11.7 0.7 5.2 64 3.0 WSW 52 65 28 35 1014.2 - -
27/06:30pm 11.8 0.9 5.4 65 3.0 WSW 52 63 28 34 1014.1 - -
27/06:20pm 11.8 0.1 5.3 64 3.0 WSW 56 67 30 36 1014.2 - -
27/06:10pm 11.8 1.2 5.3 64 3.0 WSW 50 65 27 35 1014.2 - -
27/06:00pm 11.9 0.1 4.9 62 3.2 WSW 56 69 30 37 1013.8 - -
27/05:50pm 11.9 0.9 5.2 63 3.1 WSW 52 65 28 35 1013.7 - -
27/05:40pm 11.9 0.1 4.6 61 3.3 WSW 56 67 30 36 1013.3 - -
27/05:30pm 11.9 1.3 4.9 62 3.2 WSW 50 65 27 35 1012.9 - -
27/05:20pm 11.8 1.6 5.2 64 3.0 WSW 48 61 26 33 1012.8 - -
27/05:10pm 11.5 1.0 5.6 67 2.7 WSW 50 63 27 34 1012.4 - -
27/05:00pm 11.3 0.8 5.6 68 2.6 SW 50 57 27 31 1012.3 - -
27/04:50pm 11.5 0.9 5.2 65 2.9 SW 50 69 27 37 1012.3 - -
27/04:40pm 12.0 -0.4 4.5 60 3.4 WSW 59 74 32 40 1011.9 - -
27/04:30pm 12.0 0.9 4.6 60 3.4 WSW 52 65 28 35 1012.3 - -
27/04:20pm 12.0 0.1 4.5 60 3.4 WSW 56 70 30 38 1011.7 - -
27/04:10pm 12.0 1.0 5.0 62 3.2 WSW 52 70 28 38 1011.5 - -
27/04:00pm 12.2 0.7 4.4 59 3.5 WSW 54 65 29 35 1011.0 - -
27/03:50pm 12.2 -0.3 3.9 57 3.7 WSW 59 69 32 37 1010.5 - -
27/03:40pm 12.3 -0.3 3.8 56 3.8 WSW 59 69 32 37 1010.3 - -
27/03:30pm 12.3 0.3 3.9 56 3.8 WSW 56 69 30 37 1009.9 - -
27/03:20pm 12.4 1.6 4.1 57 3.7 WSW 50 63 27 34 1010.3 - -
27/03:10pm 12.4 2.0 4.2 57 3.7 WSW 48 59 26 32 1010.3 - -
27/03:00pm 12.3 2.7 4.2 57 3.7 WSW 44 54 24 29 1009.7 - -
27/02:50pm 12.0 2.4 4.2 59 3.5 SW 44 54 24 29 1009.7 - -
27/02:40pm 12.1 3.5 4.5 59 3.5 SW 39 50 21 27 1010.0 - -
27/02:30pm 12.2 3.2 4.6 59 3.5 SW 41 48 22 26 1010.1 - -
27/02:20pm 12.1 2.7 4.7 60 3.4 WSW 43 52 23 28 1010.1 - -
27/02:10pm 11.8 3.6 4.9 62 3.2 WSW 37 46 20 25 1010.1 - -
27/02:00pm 11.8 1.9 5.0 63 3.1 WSW 46 61 25 33 1009.8 - -
27/01:50pm 12.0 4.0 5.5 64 3.0 SW 37 48 20 26 1010.3 - -
27/01:40pm 12.1 3.2 5.1 62 3.2 SW 41 50 22 27 1009.7 - -
27/01:30pm 11.7 4.1 5.6 66 2.8 SW 35 46 19 25 1009.8 - -
27/01:20pm 11.8 3.3 5.3 64 3.0 SW 39 56 21 30 1009.7 - -
27/01:10pm 12.3 2.9 4.4 58 3.6 SW 43 56 23 30 1009.6 - -

Other Formats:

Comma delimited format used in spreadsheet applications
http://www.bom.gov.au/fwo/IDV60801/IDV60801.55039.axf

JavaScript Object Notation format (JSON) in row-major order
http://www.bom.gov.au/fwo/IDV60801/IDV60801.55039.json